Time;durP1;ratioP1;P1;durP2;ratioP2;P2;SDS_P1;SDS_P2;PMS_P1;PMS_P2;Temp;Humidity;BMP_temperature;BMP_pressure;BME280_temperature;BME280_humidity;BME280_pressure;Samples;Min_cycle;Max_cycle;Signal;HPM_P1;HPM_P2
2022/07/27 00:02:20;;;;;;;3.17;1.40;;;16.40;66.90;;;;;;5004182;28;20053;-66
2022/07/27 00:04:46;;;;;;;1.83;1.00;;;16.40;66.90;;;;;;5002956;28;20029;-67
2022/07/27 00:07:12;;;;;;;1.15;0.88;;;16.40;66.90;;;;;;5004234;28;20033;-67
2022/07/27 00:09:37;;;;;;;1.17;1.00;;;16.40;66.90;;;;;;5000551;28;20112;-66
2022/07/27 00:12:03;;;;;;;1.83;0.90;;;16.40;67.00;;;;;;5002512;28;20046;-67
2022/07/27 00:14:28;;;;;;;2.70;1.13;;;16.40;67.00;;;;;;4999080;28;20121;-66
2022/07/27 00:16:54;;;;;;;1.75;1.00;;;16.40;67.00;;;;;;5002721;28;20056;-66
2022/07/27 00:19:19;;;;;;;2.17;1.05;;;16.40;66.90;;;;;;5000614;28;20480;-66
2022/07/27 00:21:45;;;;;;;2.05;1.13;;;16.40;66.80;;;;;;5003272;28;20488;-66
2022/07/27 00:24:11;;;;;;;2.05;1.08;;;16.30;66.90;;;;;;5003504;28;20033;-68
2022/07/27 00:26:36;;;;;;;1.67;1.05;;;16.20;66.90;;;;;;4997831;28;20026;-68
2022/07/27 00:29:02;;;;;;;2.45;1.10;;;16.20;67.00;;;;;;5001324;28;20022;-67
2022/07/27 00:31:27;;;;;;;2.42;1.20;;;16.20;67.00;;;;;;5002627;28;20516;-67
2022/07/27 00:33:53;;;;;;;2.00;0.90;;;16.20;66.90;;;;;;5004113;28;20444;-66
2022/07/27 00:36:18;;;;;;;2.42;1.10;;;16.20;66.90;;;;;;5000032;28;20037;-67
2022/07/27 00:38:44;;;;;;;1.42;0.95;;;16.20;66.90;;;;;;5002197;28;20073;-65
2022/07/27 00:41:10;;;;;;;3.95;1.15;;;16.20;66.90;;;;;;5003940;28;20041;-66
2022/07/27 00:43:54;;;;;;;1.45;1.00;;;16.20;66.90;;;;;;4997009;28;20070;-65
2022/07/27 00:46:20;;;;;;;2.63;1.00;;;16.20;67.00;;;;;;5003863;28;20026;-65
2022/07/27 00:48:45;;;;;;;1.83;1.10;;;16.20;67.10;;;;;;5001787;28;20030;-66
2022/07/27 00:51:12;;;;;;;1.70;1.10;;;16.20;67.10;;;;;;5000220;28;20076;-68
2022/07/27 00:53:38;;;;;;;1.20;1.02;;;16.10;67.20;;;;;;5001475;28;20026;-66
2022/07/27 00:56:04;;;;;;;2.17;1.05;;;16.10;67.20;;;;;;5001342;28;20041;-67
2022/07/27 00:58:30;;;;;;;2.72;1.10;;;16.10;67.30;;;;;;5002355;28;20030;-67
2022/07/27 01:00:55;;;;;;;2.17;1.17;;;16.10;67.40;;;;;;5001636;28;20068;-65
2022/07/27 01:03:21;;;;;;;2.10;1.00;;;16.10;67.50;;;;;;5000242;28;20030;-67
2022/07/27 01:05:47;;;;;;;1.17;0.93;;;16.10;67.40;;;;;;5001249;28;20073;-66
2022/07/27 01:08:14;;;;;;;1.67;1.00;;;16.10;67.40;;;;;;5003776;28;20496;-66
2022/07/27 01:10:40;;;;;;;2.17;1.15;;;16.00;67.50;;;;;;4999300;28;20022;-66
2022/07/27 01:13:06;;;;;;;1.73;1.10;;;15.90;67.60;;;;;;5001504;28;20081;-66
2022/07/27 01:15:32;;;;;;;2.08;1.10;;;15.90;67.80;;;;;;5001992;28;20093;-66
2022/07/27 01:17:58;;;;;;;2.53;1.13;;;15.80;67.90;;;;;;5002658;28;20076;-65
2022/07/27 01:20:24;;;;;;;2.95;1.20;;;15.80;68.10;;;;;;5006681;28;20045;-66
2022/07/27 01:22:49;;;;;;;1.35;1.10;;;15.70;68.10;;;;;;5003967;28;20033;-66
2022/07/27 01:25:15;;;;;;;3.20;1.42;;;15.70;68.30;;;;;;5002601;28;20388;-66
2022/07/27 01:27:41;;;;;;;3.58;1.20;;;15.70;68.30;;;;;;5007362;28;20018;-66
2022/07/27 01:30:25;;;;;;;2.50;1.10;;;15.70;68.40;;;;;;5005119;28;20046;-66
2022/07/27 01:32:51;;;;;;;1.75;0.90;;;15.70;68.40;;;;;;5005671;28;20076;-66
2022/07/27 01:35:17;;;;;;;2.45;1.00;;;15.70;68.30;;;;;;5003832;28;20022;-66
2022/07/27 01:37:42;;;;;;;2.45;1.00;;;15.70;68.50;;;;;;5007006;28;20025;-66
2022/07/27 01:40:08;;;;;;;2.25;1.00;;;15.70;68.60;;;;;;5005371;28;20034;-66
2022/07/27 01:42:34;;;;;;;3.17;1.00;;;15.70;68.70;;;;;;5006571;28;20025;-67
2022/07/27 01:44:59;;;;;;;1.83;1.10;;;15.70;68.60;;;;;;5006817;28;20030;-67
2022/07/27 01:47:25;;;;;;;4.07;1.30;;;15.70;68.60;;;;;;5004997;28;20110;-66
2022/07/27 01:49:51;;;;;;;4.07;1.15;;;15.70;68.60;;;;;;5000288;28;20072;-67
2022/07/27 01:52:17;;;;;;;2.40;0.90;;;15.70;68.70;;;;;;5006360;28;20436;-67
2022/07/27 01:54:42;;;;;;;1.73;0.90;;;15.70;68.70;;;;;;5005204;28;20037;-67
2022/07/27 01:57:08;;;;;;;2.35;1.20;;;15.70;68.80;;;;;;5007830;28;20034;-67
2022/07/27 01:59:33;;;;;;;2.22;1.20;;;15.70;68.80;;;;;;5005066;28;20060;-67
2022/07/27 02:01:59;;;;;;;1.58;1.00;;;15.70;68.90;;;;;;5005228;28;20030;-66
2022/07/27 02:04:24;;;;;;;2.70;1.33;;;15.70;68.90;;;;;;5005260;28;20022;-65
2022/07/27 02:06:50;;;;;;;1.45;1.20;;;15.70;69.00;;;;;;5005640;28;20022;-64
2022/07/27 02:09:16;;;;;;;1.85;1.10;;;15.70;69.10;;;;;;5004194;28;20041;-65
2022/07/27 02:14:25;;;;;;;2.15;1.00;;;15.70;69.00;;;;;;5005706;28;20037;-64
2022/07/27 02:16:51;;;;;;;2.83;1.08;;;15.60;69.00;;;;;;5005590;28;20029;-65
2022/07/27 02:19:17;;;;;;;1.60;0.93;;;15.60;69.00;;;;;;4998035;28;20096;-65
2022/07/27 02:21:43;;;;;;;2.17;1.00;;;15.60;69.10;;;;;;5004778;28;20046;-65
2022/07/27 02:24:08;;;;;;;1.95;1.30;;;15.60;69.10;;;;;;5004544;28;20558;-65
2022/07/27 02:26:34;;;;;;;1.67;1.00;;;15.60;69.10;;;;;;5003803;28;20511;-65
2022/07/27 02:28:59;;;;;;;2.58;1.10;;;15.60;69.10;;;;;;5004082;28;20072;-65
2022/07/27 02:31:25;;;;;;;3.45;1.00;;;15.60;69.70;;;;;;5004182;28;20083;-65
2022/07/27 02:33:50;;;;;;;1.88;1.00;;;15.60;69.10;;;;;;5004831;28;20088;-65
2022/07/27 02:36:16;;;;;;;2.35;0.82;;;15.70;69.10;;;;;;5002570;28;20477;-65
2022/07/27 02:38:42;;;;;;;3.10;1.00;;;15.60;69.10;;;;;;5003307;28;20030;-66
2022/07/27 02:41:07;;;;;;;1.98;1.00;;;15.60;69.10;;;;;;5003078;28;20687;-66
2022/07/27 02:43:33;;;;;;;2.05;1.00;;;15.60;69.20;;;;;;5003955;28;20034;-65
2022/07/27 02:45:58;;;;;;;1.58;0.90;;;15.50;69.30;;;;;;5004692;28;20065;-65
2022/07/27 02:48:24;;;;;;;2.05;1.00;;;15.50;69.30;;;;;;5004680;28;20381;-64
2022/07/27 02:50:49;;;;;;;1.95;1.00;;;15.50;69.40;;;;;;5005814;28;20084;-64
2022/07/27 02:53:15;;;;;;;1.80;1.00;;;15.40;69.50;;;;;;5005591;28;20018;-64
2022/07/27 02:55:41;;;;;;;1.45;1.00;;;15.40;69.60;;;;;;5007088;28;20105;-64
2022/07/27 02:58:06;;;;;;;2.25;1.02;;;15.40;69.60;;;;;;5004585;28;20022;-64
2022/07/27 03:00:32;;;;;;;3.28;1.10;;;15.30;69.60;;;;;;5003337;28;20026;-64
2022/07/27 03:02:58;;;;;;;1.45;1.00;;;15.40;69.60;;;;;;5003533;28;20029;-64
2022/07/27 03:05:24;;;;;;;1.25;1.15;;;15.40;69.70;;;;;;5002727;28;21223;-64
2022/07/27 03:07:49;;;;;;;2.08;1.00;;;15.40;69.60;;;;;;5002644;28;20111;-64
2022/07/27 03:10:15;;;;;;;2.65;1.30;;;15.40;69.50;;;;;;5003141;28;20033;-64
2022/07/27 03:12:42;;;;;;;2.65;1.23;;;15.40;69.60;;;;;;5004432;28;20033;-64
2022/07/27 03:15:09;;;;;;;1.50;1.08;;;15.40;69.50;;;;;;5003621;28;20497;-64
2022/07/27 03:17:34;;;;;;;3.85;1.20;;;15.50;70.10;;;;;;5000102;28;20115;-65
2022/07/27 03:20:00;;;;;;;1.65;1.20;;;15.50;69.50;;;;;;4999637;28;20504;-64
2022/07/27 03:22:29;;;;;;;2.55;1.08;;;15.50;70.20;;;;;;5002617;28;20033;-65
2022/07/27 03:24:55;;;;;;;3.13;1.23;;;15.50;69.60;;;;;;5002792;28;20033;-65
2022/07/27 03:27:20;;;;;;;1.75;1.02;;;15.40;69.60;;;;;;5002721;28;20060;-64
2022/07/27 03:29:46;;;;;;;2.80;1.10;;;15.40;69.60;;;;;;5002426;28;20006;-65
2022/07/27 03:32:11;;;;;;;2.35;1.27;;;15.40;69.70;;;;;;5000853;28;20404;-65
2022/07/27 03:34:37;;;;;;;2.20;1.10;;;15.40;69.90;;;;;;5003974;28;20034;-65
2022/07/27 03:37:02;;;;;;;2.13;1.30;;;15.30;69.90;;;;;;5001823;28;20061;-66
2022/07/27 03:39:28;;;;;;;2.10;1.35;;;15.30;70.00;;;;;;5002984;28;20118;-65
2022/07/27 03:41:53;;;;;;;3.17;1.13;;;15.20;70.10;;;;;;5002213;28;20040;-66
2022/07/27 03:44:19;;;;;;;1.30;1.20;;;15.30;70.30;;;;;;5007959;28;20060;-66
2022/07/27 03:46:44;;;;;;;2.47;1.08;;;15.20;70.20;;;;;;5004286;28;20497;-65
2022/07/27 03:49:10;;;;;;;2.78;1.40;;;15.30;70.20;;;;;;5001421;28;21388;-66
2022/07/27 03:51:35;;;;;;;1.63;1.00;;;15.30;70.20;;;;;;5002287;28;20540;-66
2022/07/27 03:54:02;;;;;;;2.58;1.20;;;15.30;70.10;;;;;;4999322;28;20026;-66
2022/07/27 03:56:28;;;;;;;1.50;1.10;;;15.30;70.10;;;;;;4999844;28;20530;-65
2022/07/27 03:58:53;;;;;;;1.67;1.10;;;15.20;70.10;;;;;;5001084;28;20100;-65
2022/07/27 04:01:19;;;;;;;2.33;1.10;;;15.20;70.30;;;;;;4999947;28;20049;-65
2022/07/27 04:03:44;;;;;;;2.97;1.50;;;15.20;70.30;;;;;;5002751;28;20395;-65
2022/07/27 04:06:10;;;;;;;2.60;1.30;;;15.10;70.50;;;;;;5000944;28;20022;-65
2022/07/27 04:08:35;;;;;;;2.38;1.10;;;15.10;70.60;;;;;;5003978;28;20362;-65
2022/07/27 04:11:01;;;;;;;3.63;1.20;;;15.10;70.70;;;;;;5002484;28;20018;-65
2022/07/27 04:13:26;;;;;;;2.70;1.50;;;15.00;70.70;;;;;;5003188;28;20038;-65
2022/07/27 04:15:52;;;;;;;4.07;1.50;;;15.00;70.80;;;;;;5002460;28;20451;-66
2022/07/27 04:18:17;;;;;;;1.80;1.10;;;15.00;71.00;;;;;;5003013;28;20022;-65
2022/07/27 04:20:43;;;;;;;3.22;1.30;;;15.00;71.00;;;;;;5001687;28;20077;-65
2022/07/27 04:23:08;;;;;;;2.22;1.30;;;15.00;71.70;;;;;;5003465;28;20040;-65
2022/07/27 04:25:34;;;;;;;2.10;1.20;;;15.00;71.20;;;;;;5002008;28;20370;-65
2022/07/27 04:27:59;;;;;;;2.00;1.10;;;14.90;71.20;;;;;;4998531;28;20766;-65
2022/07/27 04:30:25;;;;;;;2.60;1.42;;;15.00;71.20;;;;;;5001078;28;20041;-64
2022/07/27 04:32:51;;;;;;;2.85;1.33;;;15.00;71.20;;;;;;5002032;28;20022;-65
2022/07/27 04:35:16;;;;;;;3.08;1.20;;;15.00;71.20;;;;;;5001406;28;20030;-64
2022/07/27 04:37:42;;;;;;;1.92;1.10;;;15.00;71.30;;;;;;5002147;28;20034;-65
2022/07/27 04:40:08;;;;;;;1.20;1.00;;;15.00;71.20;;;;;;5002169;28;20044;-65
2022/07/27 04:42:34;;;;;;;1.33;1.05;;;15.10;71.20;;;;;;5004254;28;20044;-65
2022/07/27 04:44:59;;;;;;;1.60;1.00;;;15.10;71.00;;;;;;5003933;28;20030;-65
2022/07/27 04:47:25;;;;;;;2.05;1.00;;;15.10;71.00;;;;;;5002084;28;20097;-65
2022/07/27 04:49:50;;;;;;;2.05;0.90;;;15.10;70.90;;;;;;5002784;28;20098;-65
2022/07/27 04:52:16;;;;;;;1.50;1.00;;;15.20;70.90;;;;;;5000345;28;20030;-66
2022/07/27 04:54:42;;;;;;;2.70;1.40;;;15.20;71.60;;;;;;5006821;28;20113;-66
2022/07/27 04:57:08;;;;;;;2.70;1.50;;;15.20;71.00;;;;;;5006098;28;20026;-66
2022/07/27 04:59:33;;;;;;;3.15;1.60;;;15.10;71.00;;;;;;5005865;28;20815;-66
2022/07/27 05:01:59;;;;;;;2.28;1.33;;;15.10;71.20;;;;;;5005770;28;20409;-66
2022/07/27 05:04:24;;;;;;;2.30;1.27;;;15.00;71.20;;;;;;5005849;28;20041;-67
2022/07/27 05:06:50;;;;;;;3.13;1.48;;;15.00;71.40;;;;;;5005158;28;20022;-66
2022/07/27 05:09:15;;;;;;;2.08;1.33;;;15.00;71.40;;;;;;5005864;28;20018;-66
2022/07/27 05:11:41;;;;;;;2.10;1.20;;;15.10;71.40;;;;;;5006561;28;20653;-66
2022/07/27 05:14:06;;;;;;;2.17;1.25;;;15.10;71.30;;;;;;5006244;28;20080;-66
2022/07/27 05:16:32;;;;;;;2.63;1.30;;;15.20;71.30;;;;;;5006637;28;20033;-66
2022/07/27 05:18:57;;;;;;;1.83;1.35;;;15.20;71.30;;;;;;5005694;28;20594;-66
2022/07/27 05:21:24;;;;;;;1.83;1.30;;;15.30;71.20;;;;;;5006032;28;20023;-65
2022/07/27 05:23:49;;;;;;;2.80;1.33;;;15.40;71.10;;;;;;5006520;28;20037;-65
2022/07/27 05:26:14;;;;;;;2.13;1.00;;;15.40;71.10;;;;;;5005743;28;20022;-67
2022/07/27 05:28:40;;;;;;;3.10;1.40;;;15.40;71.20;;;;;;5005557;28;20029;-66
2022/07/27 05:31:06;;;;;;;1.85;1.10;;;15.40;71.20;;;;;;5005622;28;20033;-65
2022/07/27 05:33:31;;;;;;;1.92;1.10;;;15.50;71.30;;;;;;5006081;28;20133;-66
2022/07/27 05:35:57;;;;;;;2.10;1.13;;;15.50;71.40;;;;;;5004435;28;20022;-65
2022/07/27 05:38:22;;;;;;;2.20;1.15;;;15.50;71.50;;;;;;5004003;28;20497;-65
2022/07/27 05:40:48;;;;;;;1.60;1.10;;;15.60;71.60;;;;;;5004137;28;20034;-65
2022/07/27 05:43:14;;;;;;;1.55;1.15;;;15.60;71.60;;;;;;5004200;28;20033;-65
2022/07/27 05:45:39;;;;;;;2.28;1.10;;;15.60;71.70;;;;;;5002811;28;20026;-64
2022/07/27 05:48:05;;;;;;;2.03;1.00;;;15.70;71.80;;;;;;5005198;28;20034;-65
2022/07/27 05:50:30;;;;;;;1.40;1.00;;;15.70;71.70;;;;;;5003926;28;20564;-66
2022/07/27 05:52:57;;;;;;;1.50;1.08;;;15.70;71.80;;;;;;5003328;28;20117;-65
2022/07/27 05:55:23;;;;;;;2.17;1.10;;;15.70;71.90;;;;;;5003422;28;20029;-65
2022/07/27 05:57:49;;;;;;;2.67;1.08;;;15.80;71.80;;;;;;5007107;28;20038;-65
2022/07/27 06:00:15;;;;;;;1.70;0.90;;;15.80;72.20;;;;;;5003000;28;20963;-65
2022/07/27 06:02:40;;;;;;;2.35;1.15;;;15.90;72.20;;;;;;5001924;28;20036;-65
2022/07/27 06:05:07;;;;;;;1.33;0.88;;;15.90;72.50;;;;;;5006451;28;20030;-65
2022/07/27 06:10:17;;;;;;;0.88;0.77;;;16.10;72.30;;;;;;5008457;28;20069;-65
2022/07/27 06:12:44;;;;;;;1.08;0.73;;;16.20;72.00;;;;;;5013070;28;20444;-65
2022/07/27 06:15:11;;;;;;;1.73;0.70;;;16.30;71.80;;;;;;5010481;28;20532;-65
2022/07/27 06:17:37;;;;;;;1.30;0.80;;;16.30;71.70;;;;;;5010064;28;20393;-65
2022/07/27 06:20:06;;;;;;;1.23;0.60;;;16.40;71.50;;;;;;5008661;28;20440;-65
2022/07/27 06:22:31;;;;;;;1.48;0.80;;;16.60;71.20;;;;;;5010650;28;20041;-65
2022/07/27 06:24:57;;;;;;;1.10;0.70;;;16.70;70.90;;;;;;5018573;28;20022;-65
2022/07/27 06:27:23;;;;;;;1.38;0.90;;;16.70;70.50;;;;;;5009834;28;20022;-65
2022/07/27 06:29:48;;;;;;;1.98;0.85;;;16.80;70.30;;;;;;5006617;28;20382;-66
2022/07/27 06:32:14;;;;;;;1.05;0.80;;;17.10;69.80;;;;;;5007282;28;20087;-65
2022/07/27 06:34:40;;;;;;;0.73;0.60;;;17.20;69.40;;;;;;5010608;28;20075;-65
2022/07/27 06:37:05;;;;;;;1.35;0.70;;;17.40;69.20;;;;;;5010530;28;20065;-65
2022/07/27 06:39:31;;;;;;;1.33;0.80;;;17.40;68.90;;;;;;5008315;28;20500;-66
2022/07/27 06:41:56;;;;;;;1.40;0.80;;;17.50;68.70;;;;;;5009509;28;20412;-65
2022/07/27 06:44:22;;;;;;;1.23;0.77;;;17.50;68.40;;;;;;5010446;28;20048;-65
2022/07/27 06:46:47;;;;;;;1.35;0.70;;;17.50;68.60;;;;;;5007584;28;20022;-65
2022/07/27 06:49:13;;;;;;;2.17;0.80;;;17.60;68.60;;;;;;5004714;28;20405;-65
2022/07/27 06:51:39;;;;;;;0.55;0.52;;;17.50;68.30;;;;;;5007220;28;20500;-65
2022/07/27 06:54:05;;;;;;;1.38;0.70;;;17.60;68.20;;;;;;5006358;28;20033;-65
2022/07/27 06:56:31;;;;;;;0.95;0.70;;;17.60;68.10;;;;;;5006097;28;20040;-66
2022/07/27 06:58:57;;;;;;;1.10;0.52;;;17.70;67.90;;;;;;5006772;28;20721;-66
2022/07/27 07:01:23;;;;;;;1.88;0.70;;;17.80;67.50;;;;;;5008422;28;20030;-66
2022/07/27 07:03:48;;;;;;;0.60;0.60;;;17.80;67.40;;;;;;5004786;28;20038;-65
2022/07/27 07:06:14;;;;;;;0.93;0.63;;;18.00;67.00;;;;;;5004888;28;20022;-65
2022/07/27 07:08:40;;;;;;;3.60;0.80;;;18.10;66.50;;;;;;5004249;28;20683;-65
2022/07/27 07:11:05;;;;;;;1.30;0.70;;;18.10;66.00;;;;;;5011005;28;20057;-65
2022/07/27 07:13:31;;;;;;;1.38;0.60;;;18.10;65.40;;;;;;5006445;28;20030;-65
2022/07/27 07:15:57;;;;;;;1.48;0.75;;;18.20;65.40;;;;;;5004449;28;20591;-67
2022/07/27 07:18:22;;;;;;;0.73;0.60;;;18.40;64.90;;;;;;5005338;28;20843;-66
2022/07/27 07:20:48;;;;;;;1.25;0.60;;;18.50;64.50;;;;;;5003614;28;20583;-65
2022/07/27 07:23:14;;;;;;;1.45;0.70;;;18.50;64.40;;;;;;5003601;28;20022;-65
2022/07/27 07:25:40;;;;;;;1.15;0.70;;;18.70;64.20;;;;;;5001091;28;20625;-64
2022/07/27 07:28:06;;;;;;;1.83;0.70;;;18.80;63.90;;;;;;5002113;28;20030;-64
2022/07/27 07:30:32;;;;;;;0.95;0.60;;;18.90;63.60;;;;;;5003347;28;20125;-65
2022/07/27 07:32:58;;;;;;;3.00;0.88;;;19.00;63.10;;;;;;5007164;28;20030;-65
2022/07/27 07:35:24;;;;;;;1.55;0.75;;;19.20;62.80;;;;;;5002195;28;20021;-65
2022/07/27 07:37:50;;;;;;;2.05;0.88;;;19.30;62.00;;;;;;5002685;28;20065;-65
2022/07/27 07:40:16;;;;;;;2.17;0.80;;;19.30;61.70;;;;;;5002729;28;20496;-65
2022/07/27 07:42:53;;;;;;;1.33;0.60;;;19.50;61.50;;;;;;5001706;28;20022;-64
2022/07/27 07:45:21;;;;;;;1.73;0.70;;;19.70;61.20;;;;;;4991287;28;20040;-64
2022/07/27 07:47:48;;;;;;;2.13;1.00;;;19.90;60.70;;;;;;5003896;28;20125;-64
2022/07/27 07:50:14;;;;;;;1.92;0.73;;;20.10;60.10;;;;;;5000250;28;20105;-65
2022/07/27 07:52:39;;;;;;;2.63;0.80;;;20.10;59.40;;;;;;5001284;28;20198;-67
2022/07/27 07:55:06;;;;;;;1.48;0.70;;;20.10;59.20;;;;;;5005072;28;20037;-66
2022/07/27 07:57:32;;;;;;;2.33;1.00;;;20.20;59.50;;;;;;5004645;28;20026;-64
2022/07/27 07:59:57;;;;;;;1.80;0.80;;;20.10;58.40;;;;;;5000944;28;20033;-65
2022/07/27 08:02:23;;;;;;;2.42;0.60;;;20.20;58.80;;;;;;5000105;28;20039;-65
2022/07/27 08:04:48;;;;;;;2.38;0.90;;;20.40;58.80;;;;;;5004398;28;20037;-65
2022/07/27 08:07:14;;;;;;;3.17;0.98;;;20.40;56.60;;;;;;5009996;28;20030;-65
2022/07/27 08:09:39;;;;;;;1.80;0.68;;;20.50;57.00;;;;;;5009131;28;20102;-65
2022/07/27 08:12:05;;;;;;;3.17;0.98;;;20.80;56.80;;;;;;5008402;28;20053;-65
2022/07/27 08:14:32;;;;;;;4.28;1.08;;;20.70;55.20;;;;;;5008747;28;20019;-65
2022/07/27 08:16:57;;;;;;;2.60;1.02;;;20.60;54.20;;;;;;5008615;28;20031;-65
2022/07/27 08:19:23;;;;;;;1.20;0.50;;;20.50;55.10;;;;;;5007189;28;20081;-65
2022/07/27 08:21:49;;;;;;;1.95;0.93;;;20.60;55.40;;;;;;5005690;28;20029;-65
2022/07/27 08:24:14;;;;;;;1.17;0.75;;;20.50;55.40;;;;;;5010642;28;20117;-64
2022/07/27 08:26:40;;;;;;;1.75;0.65;;;20.40;55.90;;;;;;5007152;28;20019;-64
2022/07/27 08:29:05;;;;;;;1.35;0.60;;;20.40;55.60;;;;;;5010592;28;20062;-65
2022/07/27 08:31:31;;;;;;;2.13;0.70;;;20.40;55.30;;;;;;5013096;28;20083;-65
2022/07/27 08:33:56;;;;;;;1.15;0.60;;;20.40;55.40;;;;;;5009664;28;20509;-65
2022/07/27 08:36:22;;;;;;;2.63;0.70;;;20.60;55.20;;;;;;5008868;28;20034;-65
2022/07/27 08:38:47;;;;;;;1.52;0.82;;;20.90;55.00;;;;;;5010302;28;20029;-65
2022/07/27 08:41:15;;;;;;;1.85;0.70;;;21.20;54.20;;;;;;5012885;28;20075;-65
2022/07/27 08:43:44;;;;;;;3.88;0.85;;;21.40;53.20;;;;;;5011603;28;20514;-66
2022/07/27 08:46:10;;;;;;;2.67;0.80;;;21.40;52.40;;;;;;5011737;28;20173;-65
2022/07/27 08:48:38;;;;;;;2.50;1.10;;;21.70;52.30;;;;;;5013924;28;20060;-66
2022/07/27 08:51:06;;;;;;;2.22;1.00;;;21.70;51.40;;;;;;5007722;28;20137;-66
2022/07/27 08:53:32;;;;;;;1.77;0.85;;;21.70;51.10;;;;;;5009746;28;20048;-65
2022/07/27 08:55:58;;;;;;;2.63;0.98;;;21.60;51.40;;;;;;5012135;28;20106;-66
2022/07/27 08:58:23;;;;;;;2.92;0.75;;;21.50;51.70;;;;;;5013397;28;20026;-66
2022/07/27 09:00:49;;;;;;;0.85;0.57;;;21.50;51.80;;;;;;5013993;28;20599;-65
2022/07/27 09:03:16;;;;;;;2.30;0.80;;;21.50;51.90;;;;;;5014723;28;20053;-65
2022/07/27 09:05:48;;;;;;;1.85;0.80;;;21.60;50.90;;;;;;5012987;28;20025;-66
2022/07/27 09:08:16;;;;;;;2.20;0.90;;;21.60;51.00;;;;;;5010704;28;20026;-66
2022/07/27 09:10:42;;;;;;;1.95;0.80;;;21.80;49.60;;;;;;5013100;28;20037;-66
2022/07/27 09:13:23;;;;;;;1.02;0.80;;;21.80;49.10;;;;;;5013317;28;20125;-66
2022/07/27 09:15:56;;;;;;;2.55;0.93;;;22.00;49.50;;;;;;5012914;28;20045;-66
2022/07/27 09:18:28;;;;;;;1.50;0.80;;;22.10;48.90;;;;;;5013188;28;20069;-66
2022/07/27 09:21:15;;;;;;;2.05;0.85;;;22.30;49.00;;;;;;5009318;28;20108;-66
2022/07/27 09:23:47;;;;;;;1.73;0.70;;;22.40;48.30;;;;;;5008507;28;20489;-66
2022/07/27 09:26:14;;;;;;;;;;;22.70;48.30;;;;;;5011115;28;20029;-66
2022/07/27 09:28:40;;;;;;;1.75;0.80;;;22.90;48.20;;;;;;5010133;28;19925;-66
2022/07/27 09:31:11;;;;;;;1.48;0.50;;;23.10;47.60;;;;;;5005676;28;20033;-66
2022/07/27 09:33:52;;;;;;;1.77;0.60;;;23.10;46.80;;;;;;5012113;28;20034;-65
2022/07/27 09:36:21;;;;;;;1.92;0.80;;;22.90;46.20;;;;;;5013309;28;20125;-65
2022/07/27 09:38:52;;;;;;;1.65;0.70;;;22.80;45.70;;;;;;5011820;28;20034;-65
2022/07/27 09:41:18;;;;;;;1.50;0.70;;;22.50;46.30;;;;;;5009938;28;20488;-66
2022/07/27 09:43:54;;;;;;;1.58;0.73;;;22.50;46.90;;;;;;5009817;28;20064;-65
2022/07/27 09:46:34;;;;;;;1.75;0.55;;;22.50;47.30;;;;;;5006769;28;20104;-65
2022/07/27 09:49:01;;;;;;;1.38;0.70;;;22.50;47.40;;;;;;5011855;28;20029;-65
2022/07/27 09:51:27;;;;;;;2.00;0.65;;;22.40;47.60;;;;;;5009785;28;20093;-65
2022/07/27 09:53:54;;;;;;;0.80;0.60;;;22.20;48.00;;;;;;5011823;28;20045;-65
2022/07/27 09:56:29;;;;;;;3.17;0.90;;;22.10;48.40;;;;;;5009915;28;20437;-65
2022/07/27 09:58:59;;;;;;;1.35;0.70;;;21.80;48.60;;;;;;5009706;28;20030;-65
2022/07/27 10:01:33;;;;;;;1.52;0.70;;;21.60;49.20;;;;;;5009058;28;20022;-65
2022/07/27 10:04:06;;;;;;;1.38;0.68;;;21.50;49.80;;;;;;5009779;28;20025;-65
2022/07/27 10:06:32;;;;;;;1.85;0.77;;;21.40;50.10;;;;;;5007753;28;20537;-65
2022/07/27 10:08:59;;;;;;;1.98;0.80;;;21.30;50.40;;;;;;5013023;28;20025;-65
2022/07/27 10:11:26;;;;;;;1.58;0.60;;;21.40;50.50;;;;;;5006956;28;20021;-65
2022/07/27 10:13:54;;;;;;;1.50;0.70;;;21.30;50.60;;;;;;5009284;28;20049;-65
2022/07/27 10:16:27;;;;;;;2.08;0.88;;;21.40;50.60;;;;;;5010496;28;20912;-66
2022/07/27 10:19:13;;;;;;;1.73;0.88;;;21.40;51.20;;;;;;5011485;28;20026;-66
2022/07/27 10:21:42;;;;;;;0.85;0.60;;;21.40;50.40;;;;;;5002852;28;20096;-65
2022/07/27 10:24:11;;;;;;;1.25;0.65;;;21.50;50.20;;;;;;5004153;28;20117;-65
2022/07/27 10:26:41;;;;;;;2.97;0.95;;;21.50;50.00;;;;;;5004491;28;20023;-65
2022/07/27 10:29:13;;;;;;;1.13;0.60;;;21.60;49.70;;;;;;5003426;28;20033;-66
2022/07/27 10:31:40;;;;;;;2.08;0.90;;;21.70;49.40;;;;;;5005728;28;20030;-65
2022/07/27 10:34:09;;;;;;;1.05;0.70;;;21.90;49.10;;;;;;5003539;28;20026;-65
2022/07/27 10:36:34;;;;;;;1.38;0.70;;;22.00;48.70;;;;;;5004632;28;20030;-65
2022/07/27 10:39:05;;;;;;;2.72;0.70;;;22.00;48.80;;;;;;5007657;28;20503;-65
2022/07/27 10:41:34;;;;;;;1.48;0.75;;;22.10;48.80;;;;;;5006333;28;20038;-65
2022/07/27 10:44:19;;;;;;;1.38;0.90;;;21.90;48.30;;;;;;5008674;28;20066;-66
2022/07/27 10:47:05;;;;;;;1.20;0.60;;;22.00;48.90;;;;;;5010989;28;20068;-66
2022/07/27 10:49:33;;;;;;;2.22;0.88;;;21.90;48.40;;;;;;5009702;28;20107;-66
2022/07/27 10:52:00;;;;;;;0.95;0.60;;;21.80;48.40;;;;;;5004905;28;20023;-66
2022/07/27 10:54:31;;;;;;;0.93;0.70;;;21.90;48.70;;;;;;5005249;28;20026;-65
2022/07/27 10:56:59;;;;;;;1.48;0.75;;;22.20;48.30;;;;;;5005275;28;20088;-66
2022/07/27 10:59:40;;;;;;;1.98;0.93;;;22.30;48.10;;;;;;5005266;28;20057;-66
2022/07/27 11:02:08;;;;;;;1.88;0.70;;;22.50;47.20;;;;;;5006255;28;20092;-66
2022/07/27 11:04:45;;;;;;;1.25;0.68;;;22.60;47.10;;;;;;5004342;28;20045;-66
2022/07/27 11:07:19;;;;;;;2.25;0.93;;;22.70;46.50;;;;;;5003447;28;20393;-66
2022/07/27 11:09:46;;;;;;;2.25;1.00;;;22.60;45.60;;;;;;5005272;28;20018;-66
2022/07/27 11:12:12;;;;;;;2.05;0.60;;;22.80;45.80;;;;;;5003189;28;20053;-66
2022/07/27 11:14:57;;;;;;;2.60;0.60;;;23.10;45.60;;;;;;5002144;28;20026;-66
2022/07/27 11:17:24;;;;;;;1.45;0.70;;;23.40;45.30;;;;;;5004661;28;20112;-66
2022/07/27 11:20:00;;;;;;;1.38;0.75;;;23.40;44.50;;;;;;5002868;28;20037;-66
2022/07/27 11:22:38;;;;;;;2.10;0.60;;;23.20;44.30;;;;;;5001055;28;20022;-66
2022/07/27 11:25:05;;;;;;;1.70;0.95;;;23.30;44.70;;;;;;5003051;28;20037;-66
2022/07/27 11:27:31;;;;;;;2.55;0.70;;;23.20;44.70;;;;;;5000644;28;20056;-66
2022/07/27 11:29:57;;;;;;;0.90;0.63;;;23.10;45.10;;;;;;5003749;28;20033;-66
2022/07/27 11:32:23;;;;;;;1.38;0.82;;;23.00;45.30;;;;;;5006290;28;20655;-66
2022/07/27 11:34:49;;;;;;;0.73;0.60;;;22.90;45.70;;;;;;5005427;28;20159;-66
2022/07/27 11:37:22;;;;;;;2.00;0.90;;;22.70;45.70;;;;;;5007866;28;20034;-66
2022/07/27 11:39:56;;;;;;;0.90;0.60;;;22.60;45.50;;;;;;5005340;28;20033;-66
2022/07/27 11:42:22;;;;;;;2.28;0.70;;;22.60;45.70;;;;;;5006687;28;20041;-65
2022/07/27 11:44:48;;;;;;;1.60;0.57;;;22.60;45.30;;;;;;5006296;28;20026;-66
2022/07/27 11:47:18;;;;;;;1.58;0.70;;;22.60;45.10;;;;;;5008926;28;20028;-66
2022/07/27 11:49:44;;;;;;;0.98;0.60;;;22.50;44.50;;;;;;5003815;28;20153;-66
2022/07/27 11:52:10;;;;;;;1.38;0.80;;;22.40;43.80;;;;;;5004131;28;20508;-66
2022/07/27 11:54:38;;;;;;;1.42;0.63;;;22.50;43.80;;;;;;5006613;28;20118;-66
2022/07/27 11:57:11;;;;;;;1.08;0.70;;;22.60;43.60;;;;;;5002502;28;20034;-66
2022/07/27 11:59:38;;;;;;;1.70;0.65;;;22.60;43.00;;;;;;5002952;28;20544;-66
2022/07/27 12:02:12;;;;;;;1.40;0.75;;;22.60;40.80;;;;;;5003477;28;20061;-66
2022/07/27 12:04:40;;;;;;;2.28;0.95;;;22.80;42.20;;;;;;5000804;28;20037;-66
2022/07/27 12:07:05;;;;;;;2.47;1.10;;;22.80;40.90;;;;;;5006039;28;20551;-66
2022/07/27 12:09:35;;;;;;;1.08;0.70;;;22.70;41.00;;;;;;5005375;28;20026;-66
2022/07/27 12:12:11;;;;;;;1.13;0.70;;;23.00;41.40;;;;;;5004516;28;20505;-65
2022/07/27 12:14:39;;;;;;;2.08;0.77;;;23.40;41.30;;;;;;5005077;28;20040;-65
2022/07/27 12:17:19;;;;;;;1.30;0.70;;;23.70;40.80;;;;;;5004047;28;20029;-66
2022/07/27 12:19:57;;;;;;;2.28;0.90;;;23.60;39.50;;;;;;5000916;28;20025;-66
2022/07/27 12:22:31;;;;;;;1.52;0.70;;;23.80;38.70;;;;;;5004781;28;20435;-66
2022/07/27 12:24:58;;;;;;;0.93;0.80;;;23.50;38.30;;;;;;5004264;28;20027;-66
2022/07/27 12:27:27;;;;;;;1.83;0.57;;;23.90;39.10;;;;;;4999329;28;20022;-66
2022/07/27 12:30:02;;;;;;;1.50;0.60;;;24.10;39.20;;;;;;5003567;28;20026;-66
2022/07/27 12:32:30;;;;;;;0.93;0.63;;;24.30;39.20;;;;;;5001814;28;20030;-66
2022/07/27 12:34:56;;;;;;;0.80;0.50;;;24.60;39.00;;;;;;5002147;28;20054;-66
2022/07/27 12:37:26;;;;;;;1.42;0.70;;;24.90;39.00;;;;;;4997530;28;20061;-66
2022/07/27 12:39:52;;;;;;;1.15;0.60;;;25.00;38.60;;;;;;5009745;28;20061;-65
2022/07/27 12:42:18;;;;;;;1.42;0.70;;;25.20;38.40;;;;;;5005879;28;20057;-66
2022/07/27 12:44:45;;;;;;;1.30;0.70;;;25.20;37.80;;;;;;5002865;28;20025;-66
2022/07/27 12:50:00;;;;;;;1.05;0.68;;;25.10;38.40;;;;;;5003312;28;20040;-66
2022/07/27 12:52:25;;;;;;;2.38;0.73;;;25.00;38.40;;;;;;5004223;28;20026;-66
2022/07/27 12:54:51;;;;;;;0.88;0.60;;;24.80;38.60;;;;;;5003024;28;20026;-66
2022/07/27 12:57:17;;;;;;;0.80;0.50;;;24.70;38.80;;;;;;5002615;28;20030;-67